sensor_id;sensor_type;location;lat;lon;timestamp;temperature;humidity
70154;DHT22;57519;51.494;-2.626;2023-03-12T00:01:15;8.93;96.83
70154;DHT22;57519;51.494;-2.626;2023-03-12T00:14:05;8.89;96.76
70154;DHT22;57519;51.494;-2.626;2023-03-12T00:16:34;8.87;96.73
70154;DHT22;57519;51.494;-2.626;2023-03-12T00:24:20;8.80;96.71
70154;DHT22;57519;51.494;-2.626;2023-03-12T00:26:49;8.75;96.65
70154;DHT22;57519;51.494;-2.626;2023-03-12T00:29:14;8.71;96.74
70154;DHT22;57519;51.494;-2.626;2023-03-12T00:31:40;8.78;96.89
70154;DHT22;57519;51.494;-2.626;2023-03-12T00:34:08;8.82;96.89
70154;DHT22;57519;51.494;-2.626;2023-03-12T00:36:34;8.89;96.84
70154;DHT22;57519;51.494;-2.626;2023-03-12T00:39:00;8.85;96.82
70154;DHT22;57519;51.494;-2.626;2023-03-12T00:41:27;8.91;96.87
70154;DHT22;57519;51.494;-2.626;2023-03-12T00:43:56;8.89;96.83
70154;DHT22;57519;51.494;-2.626;2023-03-12T00:59:20;9.04;96.71
70154;DHT22;57519;51.494;-2.626;2023-03-12T01:01:46;8.98;96.68
70154;DHT22;57519;51.494;-2.626;2023-03-12T01:04:12;8.97;96.63
70154;DHT22;57519;51.494;-2.626;2023-03-12T01:06:38;9.01;96.66
70154;DHT22;57519;51.494;-2.626;2023-03-12T01:09:06;8.97;96.58
70154;DHT22;57519;51.494;-2.626;2023-03-12T01:11:32;8.98;96.56
70154;DHT22;57519;51.494;-2.626;2023-03-12T01:13:59;8.93;96.53
70154;DHT22;57519;51.494;-2.626;2023-03-12T01:16:29;8.97;96.51
70154;DHT22;57519;51.494;-2.626;2023-03-12T01:18:56;8.89;96.39
70154;DHT22;57519;51.494;-2.626;2023-03-12T01:21:22;8.89;96.25
70154;DHT22;57519;51.494;-2.626;2023-03-12T01:23:51;8.82;96.23
70154;DHT22;57519;51.494;-2.626;2023-03-12T01:26:20;8.82;96.20
70154;DHT22;57519;51.494;-2.626;2023-03-12T01:28:46;8.81;96.15
70154;DHT22;57519;51.494;-2.626;2023-03-12T01:31:14;8.74;96.12
70154;DHT22;57519;51.494;-2.626;2023-03-12T01:33:40;8.71;96.10
70154;DHT22;57519;51.494;-2.626;2023-03-12T01:36:17;8.63;96.02
70154;DHT22;57519;51.494;-2.626;2023-03-12T01:43:53;8.49;96.12
70154;DHT22;57519;51.494;-2.626;2023-03-12T01:48:58;8.32;96.18
70154;DHT22;57519;51.494;-2.626;2023-03-12T01:56:43;8.05;96.54
70154;DHT22;57519;51.494;-2.626;2023-03-12T02:43:08;8.09;96.32
70154;DHT22;57519;51.494;-2.626;2023-03-12T02:45:35;8.12;96.14
70154;DHT22;57519;51.494;-2.626;2023-03-12T02:48:02;8.14;96.05
70154;DHT22;57519;51.494;-2.626;2023-03-12T02:50:30;8.16;95.96
70154;DHT22;57519;51.494;-2.626;2023-03-12T02:52:55;8.13;96.01
70154;DHT22;57519;51.494;-2.626;2023-03-12T02:55:21;8.19;96.01
70154;DHT22;57519;51.494;-2.626;2023-03-12T02:57:46;8.17;95.91
70154;DHT22;57519;51.494;-2.626;2023-03-12T03:00:13;8.17;95.89
70154;DHT22;57519;51.494;-2.626;2023-03-12T03:02:40;8.16;95.86
70154;DHT22;57519;51.494;-2.626;2023-03-12T03:05:07;8.22;95.86
70154;DHT22;57519;51.494;-2.626;2023-03-12T03:07:32;8.19;95.81
70154;DHT22;57519;51.494;-2.626;2023-03-12T03:09:58;8.17;95.82
70154;DHT22;57519;51.494;-2.626;2023-03-12T03:12:30;8.12;95.78
70154;DHT22;57519;51.494;-2.626;2023-03-12T03:14:56;8.07;95.84
70154;DHT22;57519;51.494;-2.626;2023-03-12T03:17:22;8.07;95.85
70154;DHT22;57519;51.494;-2.626;2023-03-12T03:19:49;7.99;95.86
70154;DHT22;57519;51.494;-2.626;2023-03-12T03:27:48;8.13;95.89
70154;DHT22;57519;51.494;-2.626;2023-03-12T03:30:16;8.17;95.80
70154;DHT22;57519;51.494;-2.626;2023-03-12T03:32:46;8.17;95.71
70154;DHT22;57519;51.494;-2.626;2023-03-12T03:35:11;8.13;95.64
70154;DHT22;57519;51.494;-2.626;2023-03-12T03:37:37;8.10;95.63
70154;DHT22;57519;51.494;-2.626;2023-03-12T03:40:03;8.01;95.69
70154;DHT22;57519;51.494;-2.626;2023-03-12T03:42:29;7.98;95.63
70154;DHT22;57519;51.494;-2.626;2023-03-12T03:44:55;7.92;95.74
70154;DHT22;57519;51.494;-2.626;2023-03-12T03:47:20;7.94;95.77
70154;DHT22;57519;51.494;-2.626;2023-03-12T03:49:46;8.01;95.71
70154;DHT22;57519;51.494;-2.626;2023-03-12T03:52:12;7.92;95.60
70154;DHT22;57519;51.494;-2.626;2023-03-12T03:54:38;7.91;95.58
70154;DHT22;57519;51.494;-2.626;2023-03-12T03:57:03;7.92;95.61
70154;DHT22;57519;51.494;-2.626;2023-03-12T03:59:31;7.91;95.65
70154;DHT22;57519;51.494;-2.626;2023-03-12T04:01:57;7.91;95.66
70154;DHT22;57519;51.494;-2.626;2023-03-12T04:04:22;7.92;95.84
70154;DHT22;57519;51.494;-2.626;2023-03-12T04:06:48;8.02;95.95
70154;DHT22;57519;51.494;-2.626;2023-03-12T04:09:13;8.02;95.81
70154;DHT22;57519;51.494;-2.626;2023-03-12T04:11:39;8.01;95.75
70154;DHT22;57519;51.494;-2.626;2023-03-12T04:14:05;8.10;95.62
70154;DHT22;57519;51.494;-2.626;2023-03-12T04:16:38;8.02;95.53
70154;DHT22;57519;51.494;-2.626;2023-03-12T04:19:06;8.05;95.56
70154;DHT22;57519;51.494;-2.626;2023-03-12T04:21:31;8.03;95.53
70154;DHT22;57519;51.494;-2.626;2023-03-12T04:23:57;8.03;95.34
70154;DHT22;57519;51.494;-2.626;2023-03-12T04:26:23;8.02;95.32
70154;DHT22;57519;51.494;-2.626;2023-03-12T04:28:48;7.98;95.21
70154;DHT22;57519;51.494;-2.626;2023-03-12T04:31:14;7.94;95.17
70154;DHT22;57519;51.494;-2.626;2023-03-12T04:33:39;8.02;95.18
70154;DHT22;57519;51.494;-2.626;2023-03-12T04:36:06;7.98;95.17
70154;DHT22;57519;51.494;-2.626;2023-03-12T04:38:32;7.91;95.19
70154;DHT22;57519;51.494;-2.626;2023-03-12T04:41:05;7.92;95.32
70154;DHT22;57519;51.494;-2.626;2023-03-12T04:43:31;7.89;95.38
70154;DHT22;57519;51.494;-2.626;2023-03-12T04:45:58;7.91;95.39
70154;DHT22;57519;51.494;-2.626;2023-03-12T04:48:24;7.88;95.51
70154;DHT22;57519;51.494;-2.626;2023-03-12T04:50:50;7.89;95.59
70154;DHT22;57519;51.494;-2.626;2023-03-12T04:53:15;7.88;95.68
70154;DHT22;57519;51.494;-2.626;2023-03-12T04:55:41;7.86;95.63
70154;DHT22;57519;51.494;-2.626;2023-03-12T04:58:07;7.88;95.59
70154;DHT22;57519;51.494;-2.626;2023-03-12T05:00:33;7.86;95.65
70154;DHT22;57519;51.494;-2.626;2023-03-12T05:02:58;7.98;95.65
70154;DHT22;57519;51.494;-2.626;2023-03-12T05:05:24;7.92;95.55
70154;DHT22;57519;51.494;-2.626;2023-03-12T05:07:49;7.94;95.70
70154;DHT22;57519;51.494;-2.626;2023-03-12T05:10:15;7.98;95.65
70154;DHT22;57519;51.494;-2.626;2023-03-12T05:12:41;7.92;95.73
70154;DHT22;57519;51.494;-2.626;2023-03-12T05:15:06;7.99;95.82
70154;DHT22;57519;51.494;-2.626;2023-03-12T05:17:32;7.99;95.76
70154;DHT22;57519;51.494;-2.626;2023-03-12T05:19:58;7.95;95.75
70154;DHT22;57519;51.494;-2.626;2023-03-12T05:22:23;7.98;95.81
70154;DHT22;57519;51.494;-2.626;2023-03-12T05:24:49;7.95;95.82
70154;DHT22;57519;51.494;-2.626;2023-03-12T05:27:15;7.95;95.94
70154;DHT22;57519;51.494;-2.626;2023-03-12T05:29:40;7.91;95.92
70154;DHT22;57519;51.494;-2.626;2023-03-12T05:32:06;7.89;95.86
70154;DHT22;57519;51.494;-2.626;2023-03-12T05:34:32;7.79;95.88
70154;DHT22;57519;51.494;-2.626;2023-03-12T05:36:58;7.82;95.88
70154;DHT22;57519;51.494;-2.626;2023-03-12T05:39:24;7.81;95.82
70154;DHT22;57519;51.494;-2.626;2023-03-12T05:41:49;7.81;95.71
70154;DHT22;57519;51.494;-2.626;2023-03-12T05:44:15;7.78;95.60
70154;DHT22;57519;51.494;-2.626;2023-03-12T05:49:50;7.84;95.08
70154;DHT22;57519;51.494;-2.626;2023-03-12T05:52:17;7.82;94.83
70154;DHT22;57519;51.494;-2.626;2023-03-12T05:54:42;7.89;94.32
70154;DHT22;57519;51.494;-2.626;2023-03-12T05:57:07;7.91;94.29
70154;DHT22;57519;51.494;-2.626;2023-03-12T05:59:33;7.91;94.50
70154;DHT22;57519;51.494;-2.626;2023-03-12T06:01:59;7.98;94.56
70154;DHT22;57519;51.494;-2.626;2023-03-12T06:04:24;8.05;94.57
70154;DHT22;57519;51.494;-2.626;2023-03-12T06:06:50;8.10;94.54
70154;DHT22;57519;51.494;-2.626;2023-03-12T06:09:18;8.13;94.59
70154;DHT22;57519;51.494;-2.626;2023-03-12T06:11:46;8.09;94.76
70154;DHT22;57519;51.494;-2.626;2023-03-12T06:14:12;8.12;94.91
70154;DHT22;57519;51.494;-2.626;2023-03-12T06:16:41;8.14;94.95
70154;DHT22;57519;51.494;-2.626;2023-03-12T06:19:11;8.09;95.03
70154;DHT22;57519;51.494;-2.626;2023-03-12T06:21:41;8.12;95.11
70154;DHT22;57519;51.494;-2.626;2023-03-12T06:24:10;8.09;95.21
70154;DHT22;57519;51.494;-2.626;2023-03-12T06:26:39;8.05;95.31
70154;DHT22;57519;51.494;-2.626;2023-03-12T06:31:42;8.13;95.53
70154;DHT22;57519;51.494;-2.626;2023-03-12T06:34:08;8.16;95.58
70154;DHT22;57519;51.494;-2.626;2023-03-12T06:36:37;8.19;95.74
70154;DHT22;57519;51.494;-2.626;2023-03-12T06:39:05;8.10;95.68
70154;DHT22;57519;51.494;-2.626;2023-03-12T06:41:32;8.13;95.73
70154;DHT22;57519;51.494;-2.626;2023-03-12T06:43:58;8.21;95.74
70154;DHT22;57519;51.494;-2.626;2023-03-12T06:46:24;8.25;95.56
70154;DHT22;57519;51.494;-2.626;2023-03-12T06:48:50;8.19;95.51
70154;DHT22;57519;51.494;-2.626;2023-03-12T06:51:16;8.14;95.44
70154;DHT22;57519;51.494;-2.626;2023-03-12T06:53:43;8.16;95.45
70154;DHT22;57519;51.494;-2.626;2023-03-12T06:56:11;8.21;95.17
70154;DHT22;57519;51.494;-2.626;2023-03-12T06:58:37;8.22;95.08
70154;DHT22;57519;51.494;-2.626;2023-03-12T07:06:20;8.26;94.65
70154;DHT22;57519;51.494;-2.626;2023-03-12T07:08:46;8.29;94.64
70154;DHT22;57519;51.494;-2.626;2023-03-12T07:11:12;8.29;94.32
70154;DHT22;57519;51.494;-2.626;2023-03-12T07:13:38;8.32;94.26
70154;DHT22;57519;51.494;-2.626;2023-03-12T07:16:04;8.34;94.04
70154;DHT22;57519;51.494;-2.626;2023-03-12T07:18:33;8.39;94.03
70154;DHT22;57519;51.494;-2.626;2023-03-12T07:20:59;8.49;93.80
70154;DHT22;57519;51.494;-2.626;2023-03-12T07:23:24;8.54;93.63
70154;DHT22;57519;51.494;-2.626;2023-03-12T07:25:50;8.63;93.53
70154;DHT22;57519;51.494;-2.626;2023-03-12T07:33:25;8.81;93.03
70154;DHT22;57519;51.494;-2.626;2023-03-12T07:35:51;8.92;92.84
70154;DHT22;57519;51.494;-2.626;2023-03-12T07:38:16;8.98;92.54
70154;DHT22;57519;51.494;-2.626;2023-03-12T07:40:42;8.93;92.63
70154;DHT22;57519;51.494;-2.626;2023-03-12T07:43:07;8.99;92.74
70154;DHT22;57519;51.494;-2.626;2023-03-12T07:45:37;8.99;92.77
70154;DHT22;57519;51.494;-2.626;2023-03-12T07:48:04;9.04;92.88
70154;DHT22;57519;51.494;-2.626;2023-03-12T07:53:10;9.09;93.24
70154;DHT22;57519;51.494;-2.626;2023-03-12T07:55:36;9.23;93.14
70154;DHT22;57519;51.494;-2.626;2023-03-12T07:58:01;9.30;92.97
70154;DHT22;57519;51.494;-2.626;2023-03-12T08:00:28;9.42;92.73
70154;DHT22;57519;51.494;-2.626;2023-03-12T08:02:54;9.44;92.61
70154;DHT22;57519;51.494;-2.626;2023-03-12T08:05:19;9.54;92.48
70154;DHT22;57519;51.494;-2.626;2023-03-12T08:07:50;9.51;92.15
70154;DHT22;57519;51.494;-2.626;2023-03-12T08:10:16;9.67;92.00
70154;DHT22;57519;51.494;-2.626;2023-03-12T08:12:41;9.56;92.10
70154;DHT22;57519;51.494;-2.626;2023-03-12T08:15:07;9.46;92.50
70154;DHT22;57519;51.494;-2.626;2023-03-12T08:17:33;9.47;92.75
70154;DHT22;57519;51.494;-2.626;2023-03-12T08:19:58;9.36;93.35
70154;DHT22;57519;51.494;-2.626;2023-03-12T08:22:24;9.39;93.82
70154;DHT22;57519;51.494;-2.626;2023-03-12T08:24:49;9.44;94.16
70154;DHT22;57519;51.494;-2.626;2023-03-12T08:27:15;9.37;94.59
70154;DHT22;57519;51.494;-2.626;2023-03-12T08:29:40;9.37;94.84
70154;DHT22;57519;51.494;-2.626;2023-03-12T08:32:07;9.40;95.10
70154;DHT22;57519;51.494;-2.626;2023-03-12T08:34:41;9.46;95.02
70154;DHT22;57519;51.494;-2.626;2023-03-12T08:37:10;9.46;95.14
70154;DHT22;57519;51.494;-2.626;2023-03-12T08:39:35;9.56;94.94
70154;DHT22;57519;51.494;-2.626;2023-03-12T08:42:01;9.58;94.92
70154;DHT22;57519;51.494;-2.626;2023-03-12T08:47:02;9.70;94.72
70154;DHT22;57519;51.494;-2.626;2023-03-12T08:49:27;9.70;94.38
70154;DHT22;57519;51.494;-2.626;2023-03-12T08:51:53;9.76;94.30
70154;DHT22;57519;51.494;-2.626;2023-03-12T08:54:20;9.84;94.16
70154;DHT22;57519;51.494;-2.626;2023-03-12T08:57:19;10.06;93.61
70154;DHT22;57519;51.494;-2.626;2023-03-12T09:02:22;10.15;93.01
70154;DHT22;57519;51.494;-2.626;2023-03-12T09:04:50;10.14;92.78
70154;DHT22;57519;51.494;-2.626;2023-03-12T09:07:16;10.28;92.59
70154;DHT22;57519;51.494;-2.626;2023-03-12T09:09:43;10.39;92.05
70154;DHT22;57519;51.494;-2.626;2023-03-12T09:15:31;10.39;91.92
70154;DHT22;57519;51.494;-2.626;2023-03-12T09:24:00;10.25;92.17
70154;DHT22;57519;51.494;-2.626;2023-03-12T09:26:32;10.29;92.40
70154;DHT22;57519;51.494;-2.626;2023-03-12T09:28:58;10.26;92.37
70154;DHT22;57519;51.494;-2.626;2023-03-12T09:31:24;10.38;92.32
70154;DHT22;57519;51.494;-2.626;2023-03-12T09:33:51;10.42;92.32
70154;DHT22;57519;51.494;-2.626;2023-03-12T09:41:34;10.69;91.09
70154;DHT22;57519;51.494;-2.626;2023-03-12T09:44:06;10.80;91.03
70154;DHT22;57519;51.494;-2.626;2023-03-12T09:49:47;10.90;89.28
70154;DHT22;57519;51.494;-2.626;2023-03-12T09:56:03;10.81;89.29
70154;DHT22;57519;51.494;-2.626;2023-03-12T09:58:35;10.85;89.28
70154;DHT22;57519;51.494;-2.626;2023-03-12T10:09:46;10.87;88.31
70154;DHT22;57519;51.494;-2.626;2023-03-12T10:12:45;11.12;87.82
70154;DHT22;57519;51.494;-2.626;2023-03-12T10:23:50;11.79;85.82
70154;DHT22;57519;51.494;-2.626;2023-03-12T10:26:57;11.97;85.13
70154;DHT22;57519;51.494;-2.626;2023-03-12T10:29:22;11.98;84.64
70154;DHT22;57519;51.494;-2.626;2023-03-12T10:31:54;11.94;84.56
70154;DHT22;57519;51.494;-2.626;2023-03-12T10:34:43;11.77;85.48
70154;DHT22;57519;51.494;-2.626;2023-03-12T10:37:32;11.59;85.41
70154;DHT22;57519;51.494;-2.626;2023-03-12T10:40:02;11.62;85.06
70154;DHT22;57519;51.494;-2.626;2023-03-12T10:48:26;12.00;85.44
70154;DHT22;57519;51.494;-2.626;2023-03-12T10:51:11;12.18;84.82
70154;DHT22;57519;51.494;-2.626;2023-03-12T10:53:44;12.38;84.57
70154;DHT22;57519;51.494;-2.626;2023-03-12T10:56:46;12.53;82.95
70154;DHT22;57519;51.494;-2.626;2023-03-12T10:59:20;12.56;82.44
70154;DHT22;57519;51.494;-2.626;2023-03-12T11:01:50;12.63;82.28
70154;DHT22;57519;51.494;-2.626;2023-03-12T11:04:20;12.62;82.39
70154;DHT22;57519;51.494;-2.626;2023-03-12T11:13:02;12.83;81.72
70154;DHT22;57519;51.494;-2.626;2023-03-12T11:18:21;12.99;81.65
70154;DHT22;57519;51.494;-2.626;2023-03-12T12:02:19;13.71;74.13
70154;DHT22;57519;51.494;-2.626;2023-03-12T12:25:05;14.17;73.84
70154;DHT22;57519;51.494;-2.626;2023-03-12T12:39:28;13.61;75.04
70154;DHT22;57519;51.494;-2.626;2023-03-12T12:45:40;14.14;75.00
70154;DHT22;57519;51.494;-2.626;2023-03-12T12:48:20;14.13;74.30
70154;DHT22;57519;51.494;-2.626;2023-03-12T12:54:11;14.05;74.38
70154;DHT22;57519;51.494;-2.626;2023-03-12T13:00:35;14.72;72.74
70154;DHT22;57519;51.494;-2.626;2023-03-12T13:03:02;14.75;71.78
70154;DHT22;57519;51.494;-2.626;2023-03-12T13:08:59;14.65;71.28
70154;DHT22;57519;51.494;-2.626;2023-03-12T13:11:29;14.50;71.10
70154;DHT22;57519;51.494;-2.626;2023-03-12T13:20:15;14.50;71.30
70154;DHT22;57519;51.494;-2.626;2023-03-12T13:26:05;14.26;69.99
70154;DHT22;57519;51.494;-2.626;2023-03-12T13:31:57;14.36;70.46
70154;DHT22;57519;51.494;-2.626;2023-03-12T13:45:28;14.33;71.84
70154;DHT22;57519;51.494;-2.626;2023-03-12T13:48:00;14.19;71.92
70154;DHT22;57519;51.494;-2.626;2023-03-12T13:50:27;14.05;72.02
70154;DHT22;57519;51.494;-2.626;2023-03-12T13:56:17;13.99;72.91
70154;DHT22;57519;51.494;-2.626;2023-03-12T13:59:05;13.87;73.03
70154;DHT22;57519;51.494;-2.626;2023-03-12T14:05:05;13.90;73.91
70154;DHT22;57519;51.494;-2.626;2023-03-12T14:18:00;13.50;76.27
70154;DHT22;57519;51.494;-2.626;2023-03-12T14:28:00;13.69;75.76
70154;DHT22;57519;51.494;-2.626;2023-03-12T14:34:33;13.81;74.97
70154;DHT22;57519;51.494;-2.626;2023-03-12T14:47:11;14.32;72.00
70154;DHT22;57519;51.494;-2.626;2023-03-12T14:55:38;13.79;73.10
70154;DHT22;57519;51.494;-2.626;2023-03-12T14:58:18;13.78;73.06
70154;DHT22;57519;51.494;-2.626;2023-03-12T15:00:58;13.78;73.57
70154;DHT22;57519;51.494;-2.626;2023-03-12T15:03:25;13.86;73.57
70154;DHT22;57519;51.494;-2.626;2023-03-12T15:05:54;13.90;73.82
70154;DHT22;57519;51.494;-2.626;2023-03-12T15:15:05;13.87;73.75
70154;DHT22;57519;51.494;-2.626;2023-03-12T15:17:32;13.82;74.27
70154;DHT22;57519;51.494;-2.626;2023-03-12T15:20:06;13.76;74.54
70154;DHT22;57519;51.494;-2.626;2023-03-12T15:22:51;13.64;75.49
70154;DHT22;57519;51.494;-2.626;2023-03-12T15:37:31;12.89;80.19
70154;DHT22;57519;51.494;-2.626;2023-03-12T15:40:19;13.03;79.80
70154;DHT22;57519;51.494;-2.626;2023-03-12T15:42:49;12.95;79.62
70154;DHT22;57519;51.494;-2.626;2023-03-12T15:45:27;13.03;79.46
70154;DHT22;57519;51.494;-2.626;2023-03-12T15:48:16;13.06;79.87
70154;DHT22;57519;51.494;-2.626;2023-03-12T15:51:28;13.21;79.69
70154;DHT22;57519;51.494;-2.626;2023-03-12T15:56:37;13.11;80.40
70154;DHT22;57519;51.494;-2.626;2023-03-12T16:07:18;13.00;81.21
70154;DHT22;57519;51.494;-2.626;2023-03-12T16:09:44;13.00;81.25
70154;DHT22;57519;51.494;-2.626;2023-03-12T16:14:47;12.85;81.64
70154;DHT22;57519;51.494;-2.626;2023-03-12T16:17:14;12.72;81.61
70154;DHT22;57519;51.494;-2.626;2023-03-12T16:29:13;12.44;83.38
70154;DHT22;57519;51.494;-2.626;2023-03-12T16:35:14;12.30;84.11
70154;DHT22;57519;51.494;-2.626;2023-03-12T16:37:50;12.28;84.62
70154;DHT22;57519;51.494;-2.626;2023-03-12T16:40:56;12.31;85.24
70154;DHT22;57519;51.494;-2.626;2023-03-12T17:15:37;11.43;90.01
70154;DHT22;57519;51.494;-2.626;2023-03-12T17:18:02;11.32;90.19
70154;DHT22;57519;51.494;-2.626;2023-03-12T17:20:29;11.22;90.54
70154;DHT22;57519;51.494;-2.626;2023-03-12T17:23:04;11.12;90.84
70154;DHT22;57519;51.494;-2.626;2023-03-12T17:25:32;11.11;91.12
70154;DHT22;57519;51.494;-2.626;2023-03-12T17:27:57;11.04;91.31
70154;DHT22;57519;51.494;-2.626;2023-03-12T17:30:27;11.01;91.43
70154;DHT22;57519;51.494;-2.626;2023-03-12T17:33:02;10.94;91.78
70154;DHT22;57519;51.494;-2.626;2023-03-12T17:35:27;10.94;91.79
70154;DHT22;57519;51.494;-2.626;2023-03-12T17:37:53;10.93;91.94
70154;DHT22;57519;51.494;-2.626;2023-03-12T17:40:18;10.91;91.89
70154;DHT22;57519;51.494;-2.626;2023-03-12T17:42:47;10.87;92.21
70154;DHT22;57519;51.494;-2.626;2023-03-12T17:45:13;10.87;92.30
70154;DHT22;57519;51.494;-2.626;2023-03-12T17:47:38;10.83;92.42
70154;DHT22;57519;51.494;-2.626;2023-03-12T17:50:05;10.76;92.51
70154;DHT22;57519;51.494;-2.626;2023-03-12T17:52:31;10.74;92.67
70154;DHT22;57519;51.494;-2.626;2023-03-12T17:54:56;10.74;92.71
70154;DHT22;57519;51.494;-2.626;2023-03-12T17:57:24;10.74;93.01
70154;DHT22;57519;51.494;-2.626;2023-03-12T17:59:51;10.70;93.14
70154;DHT22;57519;51.494;-2.626;2023-03-12T18:02:16;10.67;93.07
70154;DHT22;57519;51.494;-2.626;2023-03-12T18:04:42;10.71;93.26
70154;DHT22;57519;51.494;-2.626;2023-03-12T18:07:08;10.70;93.30
70154;DHT22;57519;51.494;-2.626;2023-03-12T18:09:34;10.67;93.43
70154;DHT22;57519;51.494;-2.626;2023-03-12T18:11:59;10.71;93.54
70154;DHT22;57519;51.494;-2.626;2023-03-12T18:14:25;10.71;93.50
70154;DHT22;57519;51.494;-2.626;2023-03-12T18:20:13;10.71;93.82
70154;DHT22;57519;51.494;-2.626;2023-03-12T18:26:16;10.69;94.08
70154;DHT22;57519;51.494;-2.626;2023-03-12T18:32:06;10.70;94.27
70154;DHT22;57519;51.494;-2.626;2023-03-12T18:34:57;10.73;94.32
70154;DHT22;57519;51.494;-2.626;2023-03-12T18:40:47;10.74;94.22
70154;DHT22;57519;51.494;-2.626;2023-03-12T18:46:42;10.77;94.23
70154;DHT22;57519;51.494;-2.626;2023-03-12T18:52:33;10.80;94.22
70154;DHT22;57519;51.494;-2.626;2023-03-12T18:58:25;10.79;94.21
70154;DHT22;57519;51.494;-2.626;2023-03-12T19:04:31;10.84;94.18
70154;DHT22;57519;51.494;-2.626;2023-03-12T19:06:57;10.85;94.26
70154;DHT22;57519;51.494;-2.626;2023-03-12T19:12:59;10.89;94.09
70154;DHT22;57519;51.494;-2.626;2023-03-12T19:18:48;10.91;94.09
70154;DHT22;57519;51.494;-2.626;2023-03-12T19:27:59;10.96;94.36
70154;DHT22;57519;51.494;-2.626;2023-03-12T19:30:24;10.96;94.38
70154;DHT22;57519;51.494;-2.626;2023-03-12T19:36:16;10.96;94.40
70154;DHT22;57519;51.494;-2.626;2023-03-12T19:43:43;10.93;94.36
70154;DHT22;57519;51.494;-2.626;2023-03-12T19:51:28;11.07;94.27
70154;DHT22;57519;51.494;-2.626;2023-03-12T19:53:56;11.03;94.19
70154;DHT22;57519;51.494;-2.626;2023-03-12T20:03:10;11.10;94.16
70154;DHT22;57519;51.494;-2.626;2023-03-12T20:16:26;11.21;94.04
70154;DHT22;57519;51.494;-2.626;2023-03-12T20:18:52;11.21;94.21
70154;DHT22;57519;51.494;-2.626;2023-03-12T20:21:20;11.28;94.12
70154;DHT22;57519;51.494;-2.626;2023-03-12T20:23:45;11.27;94.05
70154;DHT22;57519;51.494;-2.626;2023-03-12T20:26:11;11.31;94.03
70154;DHT22;57519;51.494;-2.626;2023-03-12T20:28:42;11.28;94.01
70154;DHT22;57519;51.494;-2.626;2023-03-12T20:31:09;11.31;94.16
70154;DHT22;57519;51.494;-2.626;2023-03-12T20:33:41;11.36;94.21
70154;DHT22;57519;51.494;-2.626;2023-03-12T20:36:09;11.38;94.20
70154;DHT22;57519;51.494;-2.626;2023-03-12T20:38:35;11.42;94.13
70154;DHT22;57519;51.494;-2.626;2023-03-12T20:41:00;11.46;94.12
70154;DHT22;57519;51.494;-2.626;2023-03-12T20:43:26;11.51;94.08
70154;DHT22;57519;51.494;-2.626;2023-03-12T20:45:52;11.54;93.93
70154;DHT22;57519;51.494;-2.626;2023-03-12T20:48:20;11.59;93.99
70154;DHT22;57519;51.494;-2.626;2023-03-12T20:50:48;11.65;93.70
70154;DHT22;57519;51.494;-2.626;2023-03-12T20:53:15;11.66;93.80
70154;DHT22;57519;51.494;-2.626;2023-03-12T20:55:40;11.69;93.73
70154;DHT22;57519;51.494;-2.626;2023-03-12T20:58:06;11.73;93.62
70154;DHT22;57519;51.494;-2.626;2023-03-12T21:00:31;11.67;93.68
70154;DHT22;57519;51.494;-2.626;2023-03-12T21:02:57;11.67;93.78
70154;DHT22;57519;51.494;-2.626;2023-03-12T21:05:22;11.66;93.85
70154;DHT22;57519;51.494;-2.626;2023-03-12T21:07:52;11.69;93.81
70154;DHT22;57519;51.494;-2.626;2023-03-12T21:10:18;11.69;93.95
70154;DHT22;57519;51.494;-2.626;2023-03-12T21:12:44;11.67;94.09
70154;DHT22;57519;51.494;-2.626;2023-03-12T21:15:10;11.73;94.10
70154;DHT22;57519;51.494;-2.626;2023-03-12T21:17:37;11.67;94.19
70154;DHT22;57519;51.494;-2.626;2023-03-12T21:23:25;11.73;94.23
70154;DHT22;57519;51.494;-2.626;2023-03-12T21:25:59;11.75;94.14
70154;DHT22;57519;51.494;-2.626;2023-03-12T21:28:25;11.77;94.13
70154;DHT22;57519;51.494;-2.626;2023-03-12T21:30:51;11.80;94.18
70154;DHT22;57519;51.494;-2.626;2023-03-12T21:33:17;11.79;94.19
70154;DHT22;57519;51.494;-2.626;2023-03-12T21:35:43;11.86;94.13
70154;DHT22;57519;51.494;-2.626;2023-03-12T21:38:09;11.91;94.00
70154;DHT22;57519;51.494;-2.626;2023-03-12T21:40:38;11.90;93.97
70154;DHT22;57519;51.494;-2.626;2023-03-12T21:43:03;11.89;93.88
70154;DHT22;57519;51.494;-2.626;2023-03-12T21:45:33;11.97;93.93
70154;DHT22;57519;51.494;-2.626;2023-03-12T21:47:58;12.05;93.62
70154;DHT22;57519;51.494;-2.626;2023-03-12T21:50:24;12.07;93.39
70154;DHT22;57519;51.494;-2.626;2023-03-12T21:52:50;12.10;93.49
70154;DHT22;57519;51.494;-2.626;2023-03-12T21:55:16;12.14;93.22
70154;DHT22;57519;51.494;-2.626;2023-03-12T21:57:43;12.16;93.11
70154;DHT22;57519;51.494;-2.626;2023-03-12T22:00:10;12.20;92.86
70154;DHT22;57519;51.494;-2.626;2023-03-12T22:02:41;12.25;92.59
70154;DHT22;57519;51.494;-2.626;2023-03-12T22:05:14;12.27;92.43
70154;DHT22;57519;51.494;-2.626;2023-03-12T22:07:40;12.28;92.25
70154;DHT22;57519;51.494;-2.626;2023-03-12T22:13:43;12.31;92.10
70154;DHT22;57519;51.494;-2.626;2023-03-12T22:16:14;12.30;91.96
70154;DHT22;57519;51.494;-2.626;2023-03-12T22:18:44;12.28;91.90
70154;DHT22;57519;51.494;-2.626;2023-03-12T22:31:18;12.28;91.74
70154;DHT22;57519;51.494;-2.626;2023-03-12T22:33:44;12.30;91.50
70154;DHT22;57519;51.494;-2.626;2023-03-12T22:36:11;12.30;91.47
70154;DHT22;57519;51.494;-2.626;2023-03-12T22:38:37;12.27;91.53
70154;DHT22;57519;51.494;-2.626;2023-03-12T22:41:21;12.28;91.59
70154;DHT22;57519;51.494;-2.626;2023-03-12T22:43:48;12.35;91.07
70154;DHT22;57519;51.494;-2.626;2023-03-12T22:46:15;12.31;91.04
70154;DHT22;57519;51.494;-2.626;2023-03-12T22:48:42;12.25;91.26
70154;DHT22;57519;51.494;-2.626;2023-03-12T22:51:08;12.28;91.16
70154;DHT22;57519;51.494;-2.626;2023-03-12T22:53:34;12.25;91.22
70154;DHT22;57519;51.494;-2.626;2023-03-12T22:56:03;12.28;91.14
70154;DHT22;57519;51.494;-2.626;2023-03-12T22:58:29;12.24;91.04
70154;DHT22;57519;51.494;-2.626;2023-03-12T23:01:03;12.27;91.05
70154;DHT22;57519;51.494;-2.626;2023-03-12T23:03:30;12.32;90.47
70154;DHT22;57519;51.494;-2.626;2023-03-12T23:05:56;12.40;90.46
70154;DHT22;57519;51.494;-2.626;2023-03-12T23:08:22;12.34;90.55
70154;DHT22;57519;51.494;-2.626;2023-03-12T23:10:56;12.37;90.41
70154;DHT22;57519;51.494;-2.626;2023-03-12T23:13:23;12.35;90.43
70154;DHT22;57519;51.494;-2.626;2023-03-12T23:15:49;12.42;90.30
70154;DHT22;57519;51.494;-2.626;2023-03-12T23:18:15;12.46;90.01
70154;DHT22;57519;51.494;-2.626;2023-03-12T23:20:40;12.46;90.04
70154;DHT22;57519;51.494;-2.626;2023-03-12T23:23:06;12.46;90.17
70154;DHT22;57519;51.494;-2.626;2023-03-12T23:25:31;12.40;90.40
70154;DHT22;57519;51.494;-2.626;2023-03-12T23:27:57;12.41;90.46
70154;DHT22;57519;51.494;-2.626;2023-03-12T23:30:23;12.40;90.58
70154;DHT22;57519;51.494;-2.626;2023-03-12T23:32:48;12.46;90.28
70154;DHT22;57519;51.494;-2.626;2023-03-12T23:35:13;12.53;89.99
70154;DHT22;57519;51.494;-2.626;2023-03-12T23:37:39;12.52;90.19
70154;DHT22;57519;51.494;-2.626;2023-03-12T23:40:05;12.42;90.32
70154;DHT22;57519;51.494;-2.626;2023-03-12T23:42:31;12.49;89.99